createdAt,value
2024-05-09T00:13:35.665Z,508.00
2024-05-09T00:28:35.305Z,950.00
2024-05-09T00:43:35.145Z,872.00
2024-05-09T00:58:34.991Z,649.00
2024-05-09T01:13:34.795Z,497.00
2024-05-09T01:28:34.652Z,699.00
2024-05-09T01:43:34.481Z,575.00
2024-05-09T01:58:34.332Z,636.00
2024-05-09T02:13:34.171Z,418.00
2024-05-09T02:28:33.992Z,485.00
2024-05-09T02:43:33.879Z,464.00
2024-05-09T02:58:33.870Z,427.00
2024-05-09T03:13:33.548Z,427.00
2024-05-09T03:28:33.375Z,462.00
2024-05-09T03:43:33.196Z,435.00
2024-05-09T03:58:33.038Z,529.00
2024-05-09T04:13:32.871Z,386.00
2024-05-09T04:28:32.904Z,390.00
2024-05-09T04:43:32.572Z,388.00
2024-05-09T04:58:32.420Z,663.00
2024-05-09T05:13:32.241Z,387.00
2024-05-09T05:28:32.042Z,482.00
2024-05-09T05:43:31.894Z,359.00
2024-05-09T05:58:33.672Z,356.00
2024-05-09T06:13:31.530Z,333.00
2024-05-09T06:28:31.463Z,332.00
2024-05-09T06:43:31.366Z,373.00
2024-05-09T06:58:31.099Z,424.00
2024-05-09T07:13:30.994Z,400.00
2024-05-09T07:28:31.565Z,238.00
2024-05-09T07:43:30.668Z,444.00
2024-05-09T07:58:30.516Z,356.00
2024-05-09T08:13:32.266Z,364.00
2024-05-09T08:28:30.296Z,366.00
2024-05-09T08:43:31.115Z,370.00
2024-05-09T08:58:29.965Z,356.00
2024-05-09T09:13:29.712Z,371.00
2024-05-09T09:28:29.839Z,351.00
2024-05-09T09:43:29.414Z,340.00
2024-05-09T09:58:29.395Z,360.00
2024-05-09T10:13:29.358Z,343.00
2024-05-09T10:28:28.924Z,352.00
2024-05-09T10:43:28.855Z,350.00
2024-05-09T10:58:28.688Z,347.00
2024-05-09T11:13:42.843Z,342.00
2024-05-09T11:28:28.892Z,356.00
2024-05-09T11:43:29.293Z,350.00
2024-05-09T11:58:28.091Z,341.00
2024-05-09T12:13:27.977Z,352.00
2024-05-09T12:28:27.756Z,328.00
2024-05-09T12:43:27.702Z,354.00
2024-05-09T12:58:27.456Z,320.00
2024-05-09T13:13:27.281Z,334.00
2024-05-09T13:28:27.163Z,339.00
2024-05-09T13:43:27.053Z,338.00
2024-05-09T13:58:26.946Z,345.00
2024-05-09T14:13:26.619Z,335.00
2024-05-09T14:28:26.595Z,356.00
2024-05-09T14:43:33.373Z,333.00
2024-05-09T14:58:26.320Z,417.00
2024-05-09T15:13:26.109Z,400.00
2024-05-09T15:28:25.886Z,409.00
2024-05-09T15:43:25.840Z,402.00
2024-05-09T15:58:25.615Z,408.00
2024-05-09T16:13:25.372Z,402.00
2024-05-09T16:28:27.068Z,412.00
2024-05-09T16:43:25.239Z,400.00
2024-05-09T16:58:25.912Z,409.00
2024-05-09T17:13:24.858Z,335.00
2024-05-09T17:28:24.595Z,334.00
2024-05-09T17:43:24.955Z,328.00
2024-05-09T17:58:24.714Z,335.00
2024-05-09T18:13:24.194Z,342.00
2024-05-09T18:28:24.013Z,350.00
2024-05-09T18:43:28.777Z,622.00
2024-05-09T18:58:24.638Z,327.00
2024-05-09T19:13:23.514Z,335.00
2024-05-09T19:28:23.603Z,303.00
2024-05-09T19:43:23.217Z,359.00
2024-05-09T19:58:25.083Z,363.00
2024-05-09T20:13:22.896Z,357.00
2024-05-09T20:28:22.802Z,359.00
2024-05-09T20:43:22.630Z,349.00
2024-05-09T20:58:23.901Z,366.00
2024-05-09T21:13:22.401Z,379.00
2024-05-09T21:28:22.018Z,427.00
2024-05-09T21:43:22.067Z,416.00
2024-05-09T21:58:21.952Z,419.00
2024-05-09T22:13:21.977Z,413.00
2024-05-09T22:28:22.543Z,402.00
2024-05-09T22:43:25.012Z,414.00
2024-05-09T22:58:21.210Z,402.00
2024-05-09T23:13:21.165Z,420.00
2024-05-09T23:28:20.878Z,421.00
2024-05-09T23:43:20.873Z,448.00
2024-05-09T23:58:21.436Z,438.00
